Time;durP1;ratioP1;P1;durP2;ratioP2;P2;SDS_P1;SDS_P2;PMS_P1;PMS_P2;Temp;Humidity;BMP_temperature;BMP_pressure;BME280_temperature;BME280_humidity;BME280_pressure;Samples;Min_cycle;Max_cycle;Signal;HPM_P1;HPM_P2
2021/11/01 00:00:31;;;;;;;88.23;10.60;;;1.00;59.70;;;;;;4893251;28;20266;-77
2021/11/01 00:02:54;;;;;;;8.43;1.20;;;;;;;;;;4894624;28;20196;-76
2021/11/01 00:05:18;;;;;;;13.97;1.93;;;0.90;68.50;;;;;;4894178;28;20193;-78
2021/11/01 00:07:42;;;;;;;13.47;1.87;;;0.90;57.70;;;;;;4874679;28;20434;-76
2021/11/01 00:10:06;;;;;;;8.20;1.17;;;0.90;47.00;;;;;;4883416;28;20188;-78
2021/11/01 00:12:30;;;;;;;20.83;2.70;;;;;;;;;;4884196;28;20283;-77
2021/11/01 00:14:54;;;;;;;8.77;1.30;;;;;;;;;;4886851;28;20264;-78
2021/11/01 00:17:17;;;;;;;7.80;1.10;;;;;;;;;;4886760;28;20196;-77
2021/11/01 00:19:39;;;;;;;18.47;2.47;;;;;;;;;;4868881;28;20201;-77
2021/11/01 00:22:02;;;;;;;4.80;0.70;;;0.80;48.70;;;;;;4867915;28;20209;-76
2021/11/01 00:24:26;;;;;;;13.83;1.87;;;0.60;92.60;;;;;;4864651;28;20552;-77
2021/11/01 00:26:49;;;;;;;8.80;1.30;;;0.60;32.60;;;;;;4874385;28;20220;-76
2021/11/01 00:29:12;;;;;;;10.90;1.50;;;0.50;86.00;;;;;;4881590;28;20286;-77
2021/11/01 00:31:35;;;;;;;15.53;2.07;;;-0.30;47.40;;;;;;4885281;28;20197;-76
2021/11/01 00:33:58;;;;;;;14.13;1.90;;;;;;;;;;4890573;28;20180;-77
2021/11/01 00:36:20;;;;;;;11.70;1.67;;;;;;;;;;4893747;28;20234;-78
2021/11/01 00:38:44;;;;;;;4.97;0.80;;;;;;;;;;4859289;28;20615;-76
2021/11/01 00:41:08;;;;;;;9.00;1.37;;;0.40;99.90;;;;;;4871425;28;20243;-77
2021/11/01 00:43:31;;;;;;;16.47;2.10;;;;;;;;;;4893464;28;20227;-79
2021/11/01 00:45:53;;;;;;;8.17;1.20;;;;;;;;;;4893363;28;20270;-78
2021/11/01 00:48:17;;;;;;;14.03;1.87;;;0.60;95.30;;;;;;4894160;28;20238;-76
2021/11/01 00:50:40;;;;;;;22.87;2.90;;;;;;;;;;4893572;28;20181;-76
2021/11/01 00:53:02;;;;;;;13.50;1.77;;;;;;;;;;4893401;28;20246;-77
2021/11/01 00:55:32;;;;;;;13.47;1.80;;;;;;;;;;4893043;28;20595;-75
2021/11/01 00:57:56;;;;;;;8.70;1.23;;;0.40;37.80;;;;;;4894130;28;20223;-76
2021/11/01 01:00:19;;;;;;;13.53;1.83;;;;;;;;;;4895324;28;20189;-76
2021/11/01 01:02:42;;;;;;;10.97;1.53;;;;;;;;;;4896958;28;20185;-75
2021/11/01 01:05:06;;;;;;;8.10;2.03;;;0.30;69.30;;;;;;4897582;28;20208;-76
2021/11/01 01:07:28;;;;;;;17.40;2.47;;;;;;;;;;4896749;28;20739;-77
2021/11/01 01:09:51;;;;;;;13.37;1.87;;;;;;;;;;4865652;28;20194;-80
2021/11/01 01:12:14;;;;;;;10.30;1.43;;;;;;;;;;4895351;28;20180;-75
2021/11/01 01:14:43;;;;;;;19.30;2.47;;;0.70;80.00;;;;;;4877404;28;20205;-76
2021/11/01 01:17:06;;;;;;;25.10;3.37;;;;;;;;;;4896327;28;20196;-76
2021/11/01 01:19:41;;;;;;;19.27;2.33;;;;;;;;;;4890164;28;20194;-76
2021/11/01 01:22:28;;;;;;;9.27;1.33;;;;;;;;;;4897237;28;20173;-77
2021/11/01 01:24:51;;;;;;;9.33;1.37;;;;;;;;;;4896700;28;20226;-79
2021/11/01 01:27:14;;;;;;;11.47;1.57;;;;;;;;;;4897414;28;20181;-79
2021/11/01 01:29:36;;;;;;;22.00;2.73;;;;;;;;;;4891047;28;20553;-79
2021/11/01 01:32:00;;;;;;;9.63;1.43;;;1.20;65.40;;;;;;4897281;28;20563;-75
2021/11/01 01:34:23;;;;;;;8.67;1.37;;;;;;;;;;4896820;28;21914;-78
2021/11/01 01:36:46;;;;;;;8.37;1.27;;;;;;;;;;4896186;28;20196;-79
2021/11/01 01:39:08;;;;;;;8.93;1.30;;;1.30;67.60;;;;;;4859526;28;20273;-77
2021/11/01 01:41:31;;;;;;;16.40;2.30;;;;;;;;;;4896149;28;20254;-77
2021/11/01 01:43:55;;;;;;;9.40;1.33;;;1.20;72.40;;;;;;4896798;28;20298;-79
2021/11/01 01:46:18;;;;;;;16.03;3.03;;;;;;;;;;4896645;28;20231;-79
2021/11/01 01:48:42;;;;;;;12.47;2.53;;;1.30;70.30;;;;;;4896652;28;20255;-77
2021/11/01 01:51:06;;;;;;;13.13;1.83;;;;;;;;;;4896505;28;20270;-78
2021/11/01 01:53:29;;;;;;;23.47;2.87;;;;;;;;;;4889177;28;20326;-76
2021/11/01 01:55:52;;;;;;;16.30;2.07;;;1.40;65.70;;;;;;4890573;28;20659;-77
2021/11/01 01:58:14;;;;;;;17.63;2.23;;;;;;;;;;4895242;28;20185;-78
2021/11/01 02:00:52;;;;;;;124.17;14.57;;;;;;;;;;4893937;28;20189;-77
2021/11/01 02:03:14;;;;;;;16.43;3.30;;;;;;;;;;4894631;28;20260;-77
2021/11/01 02:05:45;;;;;;;15.13;2.37;;;1.20;81.30;;;;;;4890310;28;20609;-77
2021/11/01 02:08:09;;;;;;;17.07;2.53;;;1.20;81.20;;;;;;4888376;28;20258;-76
2021/11/01 02:10:38;;;;;;;14.97;1.90;;;1.20;83.80;;;;;;4895548;28;20442;-76
2021/11/01 02:13:06;;;;;;;10.07;1.47;;;1.10;95.80;;;;;;4896266;28;20211;-76
2021/11/01 02:15:35;;;;;;;15.07;2.00;;;1.10;96.20;;;;;;4889372;28;20242;-78
2021/11/01 02:17:59;;;;;;;9.07;1.27;;;1.10;95.90;;;;;;4892953;28;20735;-77
2021/11/01 02:20:30;;;;;;;8.33;1.20;;;1.00;98.80;;;;;;4895393;28;20200;-77
2021/11/01 02:23:03;;;;;;;7.70;1.20;;;1.00;34.20;;;;;;4877844;28;20206;-76
2021/11/01 02:25:39;;;;;;;12.67;1.87;;;0.80;40.60;;;;;;4853502;28;20186;-77
2021/11/01 02:28:02;;;;;;;4.87;0.87;;;1.00;41.10;;;;;;4895655;28;20224;-78
2021/11/01 02:30:25;;;;;;;12.60;1.90;;;;;;;;;;4887034;28;20243;-76
2021/11/01 02:32:48;;;;;;;7.93;1.27;;;0.70;50.00;;;;;;4873146;28;20194;-81
2021/11/01 02:35:12;;;;;;;10.97;1.63;;;0.80;66.10;;;;;;4876500;28;20182;-76
2021/11/01 02:37:40;;;;;;;13.13;1.97;;;0.90;51.50;;;;;;4895990;28;20177;-76
2021/11/01 02:40:02;;;;;;;5.00;0.87;;;;;;;;;;4896411;28;20201;-80
2021/11/01 02:42:29;;;;;;;9.40;1.50;;;1.00;91.40;;;;;;4875322;28;20185;-77
2021/11/01 02:44:53;;;;;;;9.17;1.43;;;0.80;68.20;;;;;;4850604;28;20217;-77
2021/11/01 02:47:16;;;;;;;8.40;1.37;;;0.70;74.60;;;;;;4895035;28;20193;-78
2021/11/01 02:49:39;;;;;;;13.50;2.03;;;0.80;36.60;;;;;;4895055;28;20262;-78
2021/11/01 02:52:02;;;;;;;5.73;1.03;;;;;;;;;;4896035;28;21091;-78
2021/11/01 02:54:24;;;;;;;8.63;1.40;;;0.80;98.60;;;;;;4869135;28;20217;-76
2021/11/01 02:56:47;;;;;;;7.40;1.23;;;;;;;;;;4876985;28;20270;-76
2021/11/01 02:59:11;;;;;;;8.63;1.40;;;1.00;82.30;;;;;;4893500;28;20227;-78
2021/11/01 03:01:33;;;;;;;17.53;2.60;;;;;;;;;;4893198;28;20241;-80
2021/11/01 03:03:56;;;;;;;6.70;1.10;;;0.90;99.90;;;;;;4877756;28;20208;-76
2021/11/01 03:06:23;;;;;;;11.50;1.83;;;1.00;47.00;;;;;;4895260;28;20192;-77
2021/11/01 03:08:47;;;;;;;6.20;1.00;;;1.00;48.40;;;;;;4895495;28;20211;-76
2021/11/01 03:11:10;;;;;;;8.70;1.40;;;0.90;89.70;;;;;;4895305;28;20184;-77
2021/11/01 03:13:35;;;;;;;14.33;2.10;;;1.00;84.60;;;;;;4894512;28;20534;-80
2021/11/01 03:16:00;;;;;;;7.03;1.20;;;1.00;62.80;;;;;;4895190;28;20181;-77
2021/11/01 03:18:27;;;;;;;6.27;1.00;;;1.10;50.90;;;;;;4885194;28;20788;-76
2021/11/01 03:20:55;;;;;;;5.40;0.93;;;0.90;57.60;;;;;;4894506;28;20185;-77
2021/11/01 03:23:22;;;;;;;9.27;1.43;;;1.00;48.90;;;;;;4859640;28;20190;-80
2021/11/01 03:25:51;;;;;;;4.57;0.83;;;1.10;44.90;;;;;;4895724;28;20188;-76
2021/11/01 03:28:15;;;;;;;6.63;1.13;;;0.80;44.10;;;;;;4895678;28;20329;-77
2021/11/01 03:30:39;;;;;;;11.13;1.73;;;0.90;30.10;;;;;;4877466;28;20832;-77
2021/11/01 03:33:04;;;;;;;2.83;0.60;;;0.80;40.70;;;;;;4895518;28;20222;-77
2021/11/01 03:35:28;;;;;;;11.10;1.67;;;0.80;43.80;;;;;;4888457;28;20215;-76
2021/11/01 03:37:53;;;;;;;4.33;0.73;;;0.70;99.90;;;;;;4896095;28;20231;-77
2021/11/01 03:40:18;;;;;;;3.87;0.77;;;0.00;94.40;;;;;;4895901;28;20249;-76
2021/11/01 03:42:42;;;;;;;2.50;0.50;;;0.70;98.20;;;;;;4895263;28;20258;-77
2021/11/01 03:45:08;;;;;;;4.93;0.90;;;0.40;94.50;;;;;;4895761;28;20204;-75
2021/11/01 03:47:35;;;;;;;12.10;1.77;;;0.30;89.70;;;;;;4870721;28;20197;-77
2021/11/01 03:50:03;;;;;;;7.07;1.00;;;0.50;96.20;;;;;;4895735;28;20204;-77
2021/11/01 03:52:28;;;;;;;12.77;1.90;;;0.60;30.00;;;;;;4887826;28;20274;-77
2021/11/01 03:54:52;;;;;;;4.43;0.77;;;0.60;99.60;;;;;;4875042;28;20304;-76
2021/11/01 03:57:15;;;;;;;6.90;1.13;;;0.70;40.40;;;;;;4876371;28;20204;-76
2021/11/01 03:59:39;;;;;;;11.60;1.87;;;0.80;34.90;;;;;;4895659;28;20181;-77
2021/11/01 04:02:02;;;;;;;1.87;0.50;;;;;;;;;;4875601;28;20298;-76
2021/11/01 04:04:25;;;;;;;6.37;1.10;;;;;;;;;;4877652;28;20223;-77
2021/11/01 04:06:48;;;;;;;5.20;1.03;;;0.80;95.00;;;;;;4876680;28;20201;-77
2021/11/01 04:09:13;;;;;;;6.97;1.20;;;0.60;86.60;;;;;;4895526;28;20262;-76
2021/11/01 04:11:37;;;;;;;10.93;1.70;;;0.80;87.20;;;;;;4888828;28;20184;-77
2021/11/01 04:14:22;;;;;;;6.93;1.20;;;0.70;77.10;;;;;;4891865;28;20177;-77
2021/11/01 04:17:10;;;;;;;4.73;0.90;;;;;;;;;;4895318;28;20650;-76
2021/11/01 04:20:01;;;;;;;5.63;1.07;;;0.70;72.30;;;;;;4891519;28;20183;-77
2021/11/01 04:22:48;;;;;;;2.73;0.60;;;1.30;65.40;;;;;;4890267;28;20648;-76
2021/11/01 04:25:32;;;;;;;10.03;1.53;;;1.20;69.10;;;;;;4887895;28;20177;-77
2021/11/01 04:28:15;;;;;;;6.43;1.20;;;1.10;83.70;;;;;;4894968;28;20185;-77
2021/11/01 04:31:04;;;;;;;6.23;1.20;;;1.00;92.80;;;;;;4894601;28;20190;-77
2021/11/01 04:33:28;;;;;;;8.63;1.50;;;0.90;93.20;;;;;;4886942;28;20646;-77
2021/11/01 04:35:50;;;;;;;4.10;0.83;;;0.70;99.90;;;;;;4898966;28;20241;-77
2021/11/01 04:38:23;;;;;;;5.13;0.97;;;0.80;42.50;;;;;;4899117;28;20197;-80
2021/11/01 04:40:56;;;;;;;3.20;0.73;;;1.00;35.00;;;;;;4881418;28;20205;-77
2021/11/01 04:54:07;;;;;;;4.33;0.80;;;0.70;97.30;;;;;;4898998;28;20216;-76
2021/11/01 04:56:29;;;;;;;8.10;1.43;;;0.70;32.10;;;;;;4894160;28;20223;-77
2021/11/01 04:58:53;;;;;;;3.90;0.80;;;0.60;37.60;;;;;;4898429;28;20599;-78
2021/11/01 05:01:18;;;;;;;7.20;1.27;;;0.70;30.50;;;;;;4878323;28;20594;-78
2021/11/01 05:03:43;;;;;;;2.37;0.60;;;;;;;;;;4898963;28;20553;-79
2021/11/01 05:06:06;;;;;;;5.57;1.07;;;0.50;30.50;;;;;;4898129;28;20185;-77
2021/11/01 05:08:35;;;;;;;10.53;1.70;;;0.60;98.10;;;;;;4891380;28;20238;-77
2021/11/01 05:11:03;;;;;;;4.73;0.93;;;0.60;99.90;;;;;;4878128;28;20210;-76
2021/11/01 05:13:29;;;;;;;9.80;1.70;;;;;;;;;;4891036;28;20193;-77
2021/11/01 05:15:56;;;;;;;3.77;0.73;;;;;;;;;;4880512;28;20678;-77
2021/11/01 05:18:26;;;;;;;5.73;1.10;;;;;;;;;;4898512;28;20184;-77
2021/11/01 05:20:53;;;;;;;4.90;0.90;;;0.30;96.00;;;;;;4898596;28;20188;-78
2021/11/01 05:23:27;;;;;;;6.63;1.17;;;0.10;89.00;;;;;;4880017;28;20794;-77
2021/11/01 05:25:53;;;;;;;3.57;0.70;;;0.30;95.70;;;;;;4897435;28;20630;-77
2021/11/01 05:28:25;;;;;;;5.03;1.00;;;0.30;36.30;;;;;;4879852;28;20254;-76
2021/11/01 05:30:53;;;;;;;5.20;1.00;;;;;;;;;;4880243;28;20710;-80
2021/11/01 05:35:58;;;;;;;3.63;0.73;;;0.10;32.20;;;;;;4891383;28;20727;-77
2021/11/01 05:38:20;;;;;;;5.97;1.10;;;0.00;99.30;;;;;;4896588;28;20246;-77
2021/11/01 05:40:43;;;;;;;2.30;0.60;;;-0.10;97.90;;;;;;4898278;28;20248;-77
2021/11/01 05:43:06;;;;;;;6.80;1.07;;;0.70;97.20;;;;;;4898259;28;20185;-77
2021/11/01 05:45:30;;;;;;;9.90;1.63;;;0.00;92.80;;;;;;4889964;28;20204;-77
2021/11/01 05:47:57;;;;;;;4.00;0.80;;;0.10;81.80;;;;;;4879806;28;20201;-77
2021/11/01 05:50:19;;;;;;;5.93;1.10;;;-0.50;77.10;;;;;;4897908;28;20673;-78
2021/11/01 05:52:43;;;;;;;1.63;0.50;;;;;;;;;;4898192;28;20220;-80
2021/11/01 05:55:13;;;;;;;6.03;1.10;;;;;;;;;;4880446;28;20236;-76
2021/11/01 05:57:45;;;;;;;9.50;1.60;;;0.30;79.40;;;;;;4897889;28;20193;-76
2021/11/01 06:00:18;;;;;;;4.63;0.90;;;0.30;80.20;;;;;;4897917;28;20177;-76
2021/11/01 06:02:59;;;;;;;8.77;1.53;;;0.20;87.60;;;;;;4878407;28;20189;-76
2021/11/01 06:05:38;;;;;;;2.80;0.70;;;;;;;;;;4896245;28;20201;-77
2021/11/01 06:08:23;;;;;;;4.80;0.93;;;;;;;;;;4894690;28;20237;-76
2021/11/01 06:13:24;;;;;;;4.17;0.87;;;0.30;74.00;;;;;;4879637;28;20219;-76
2021/11/01 06:13:34;;;;;;;10.53;1.83;;;0.30;71.40;;;;;;4896358;28;20528;-77
2021/11/01 06:15:58;;;;;;;10.03;1.67;;;0.60;71.50;;;;;;4897577;28;20200;-76
2021/11/01 06:18:25;;;;;;;4.40;0.90;;;0.70;71.70;;;;;;4897568;28;20314;-78
2021/11/01 06:20:47;;;;;;;4.70;0.90;;;0.50;75.20;;;;;;4871447;28;20186;-77
2021/11/01 06:23:10;;;;;;;5.70;1.03;;;0.30;72.70;;;;;;4897416;28;20193;-77
2021/11/01 06:25:33;;;;;;;11.10;1.80;;;1.60;64.80;;;;;;4897307;28;20231;-78
2021/11/01 06:27:55;;;;;;;3.87;0.80;;;1.30;69.30;;;;;;4874426;28;20193;-77
2021/11/01 06:30:42;;;;;;;9.57;1.60;;;;;;;;;;4876097;28;20246;-77
2021/11/01 06:39:43;;;;;;;4.60;0.90;;;;;;;;;;4896967;28;20681;-77
2021/11/01 06:42:30;;;;;;;9.97;1.53;;;2.40;61.00;;;;;;4889370;28;20187;-77
2021/11/01 06:51:08;;;;;;;3.70;0.77;;;;;;;;;;4917390;28;20331;-77
2021/11/01 07:14:58;;;;;;;5.07;0.87;;;4.40;74.10;;;;;;4916338;28;20188;-76
2021/11/01 07:17:44;;;;;;;11.23;1.80;;;;;;;;;;4913980;28;20197;-76
2021/11/01 07:20:33;;;;;;;11.57;1.73;;;4.50;60.30;;;;;;4911497;28;20181;-77
2021/11/01 08:39:04;;;;;;;3.00;0.67;;;12.20;59.60;;;;;;4878545;28;20531;-78
2021/11/01 08:42:15;;;;;;;3.83;0.80;;;12.40;79.50;;;;;;4877634;28;20187;-78
2021/11/01 08:45:20;;;;;;;7.03;1.20;;;;;;;;;;4878314;28;20219;-78
2021/11/01 08:48:32;;;;;;;2.53;0.60;;;13.00;76.90;;;;;;4878366;28;20212;-80
2021/11/01 08:51:48;;;;;;;4.43;1.00;;;12.80;30.40;;;;;;4878101;28;20182;-78
2021/11/01 09:03:56;;;;;;;6.17;1.00;;;;;;;;;;4877740;28;20554;-79
2021/11/01 09:07:16;;;;;;;16.57;2.17;;;;;;;;;;4877576;28;20219;-78
2021/11/01 09:13:31;;;;;;;8.33;1.30;;;13.80;62.00;;;;;;4877499;28;20675;-79
2021/11/01 09:25:20;;;;;;;11.33;1.70;;;;;;;;;;4852806;28;20219;-78
2021/11/01 09:28:09;;;;;;;8.10;1.10;;;16.80;89.70;;;;;;4876506;28;20215;-79
2021/11/01 09:36:51;;;;;;;11.27;1.60;;;;;;;;;;4857868;28;20616;-77
2021/11/01 09:40:54;;;;;;;24.37;3.00;;;;;;;;;;4884377;28;20192;-76
2021/11/01 09:42:51;;;;;;;12.93;1.80;;;28.60;49.50;;;;;;4857543;28;20199;-77
2021/11/01 09:45:37;;;;;;;30.93;3.77;;;30.20;49.80;;;;;;4859438;28;20208;-79
2021/11/01 09:48:20;;;;;;;10.87;1.43;;;;;;;;;;4867116;28;20220;-78
2021/11/01 09:51:06;;;;;;;7.13;1.27;;;30.70;50.00;;;;;;4875286;28;20195;-77
2021/11/01 09:53:49;;;;;;;11.90;1.73;;;;;;;;;;4878746;28;20179;-79
2021/11/01 09:56:42;;;;;;;27.90;3.43;;;;;;;;;;4882392;28;20170;-79
2021/11/01 09:59:25;;;;;;;15.87;2.10;;;27.20;48.80;;;;;;4873857;28;20213;-77
2021/11/01 10:02:12;;;;;;;6.30;1.00;;;25.70;48.20;;;;;;4876600;28;20259;-80
2021/11/01 10:04:55;;;;;;;17.43;2.20;;;;;;;;;;4882215;28;20236;-79
2021/11/01 10:07:38;;;;;;;25.80;3.07;;;;;;;;;;4884260;28;20177;-79
2021/11/01 10:10:21;;;;;;;15.27;1.90;;;;;;;;;;4875675;28;20224;-78
2021/11/01 10:13:13;;;;;;;6.70;0.97;;;20.60;60.80;;;;;;4875324;28;20187;-79
2021/11/01 10:18:59;;;;;;;13.10;1.70;;;20.10;60.40;;;;;;4876068;28;20197;-78
2021/11/01 10:21:56;;;;;;;12.27;1.60;;;19.80;58.60;;;;;;4870453;28;20270;-78
2021/11/01 10:24:41;;;;;;;18.23;2.30;;;20.30;60.50;;;;;;4879595;28;21224;-78
2021/11/01 10:27:30;;;;;;;10.60;1.40;;;20.60;60.60;;;;;;4889861;28;20197;-80
2021/11/01 10:30:15;;;;;;;10.90;1.47;;;21.70;61.00;;;;;;4874637;28;20181;-76
2021/11/01 10:33:00;;;;;;;18.50;2.23;;;23.50;62.00;;;;;;4874015;28;20661;-79
2021/11/01 10:35:45;;;;;;;9.60;1.33;;;25.00;55.20;;;;;;4876882;28;20188;-79
2021/11/01 10:38:31;;;;;;;27.33;3.37;;;;;;;;;;4876109;28;20205;-81
2021/11/01 10:41:17;;;;;;;18.73;2.30;;;;;;;;;;4869499;28;20185;-78
2021/11/01 10:44:11;;;;;;;8.93;1.17;;;;;;;;;;4885307;28;20186;-78
2021/11/01 10:47:36;;;;;;;12.03;1.60;;;26.60;48.40;;;;;;4875132;28;20241;-77
2021/11/01 11:11:24;;;;;;;14.40;1.80;;;22.90;61.70;;;;;;4874720;28;20202;-78
2021/11/01 11:13:51;;;;;;;11.40;1.43;;;24.00;62.10;;;;;;4879542;28;20241;-79
2021/11/01 11:16:26;;;;;;;21.47;4.20;;;;;;;;;;4883598;28;20530;-82
2021/11/01 11:18:57;;;;;;;45.07;41.20;;;27.90;48.90;;;;;;4874400;28;20212;-84
2021/11/01 11:27:12;;;;;;;59.70;54.90;;;34.10;51.10;;;;;;4873805;28;20238;-80
2021/11/01 11:29:52;;;;;;;41.30;29.40;;;;;;;;;;4860273;28;20269;-80
2021/11/01 11:48:45;;;;;;;32.57;29.17;;;;;;;;;;4878064;28;20184;-80
2021/11/01 11:51:09;;;;;;;40.77;36.03;;;36.60;52.00;;;;;;4878298;28;20222;-81
2021/11/01 11:53:33;;;;;;;48.30;40.40;;;;;;;;;;4876923;28;20200;-82
2021/11/01 11:56:03;;;;;;;39.20;35.73;;;35.70;50.40;;;;;;4877497;28;20202;-80
2021/11/01 11:58:33;;;;;;;47.20;43.17;;;37.00;52.20;;;;;;4876688;28;20212;-81
2021/11/01 12:00:56;;;;;;;58.33;53.47;;;;;;;;;;4875892;28;20615;-84
2021/11/01 12:03:20;;;;;;;59.53;55.17;;;37.50;52.40;;;;;;4878747;28;20581;-79
2021/11/01 12:05:46;;;;;;;59.03;53.70;;;36.90;52.20;;;;;;4877914;28;20181;-82
2021/11/01 12:08:13;;;;;;;60.40;55.77;;;37.60;52.40;;;;;;4878279;28;20181;-82
2021/11/01 12:19:03;;;;;;;84.80;78.93;;;39.60;51.40;;;;;;4909644;28;20621;-85
2021/11/01 12:21:26;;;;;;;59.90;55.50;;;;;;;;;;4877498;28;20189;-81
2021/11/01 12:23:49;;;;;;;55.65;50.47;;;;;;;;;;4877455;28;20190;-80
2021/11/01 12:26:12;;;;;;;51.95;46.90;;;39.10;53.00;;;;;;4876145;28;20189;-81
2021/11/01 12:28:36;;;;;;;42.70;39.13;;;39.30;53.00;;;;;;4877332;28;20190;-81
2021/11/01 12:31:00;;;;;;;53.10;48.72;;;39.90;53.20;;;;;;4877775;28;20198;-81
2021/11/01 12:33:27;;;;;;;56.15;52.03;;;41.00;52.30;;;;;;4877371;28;20651;-82
2021/11/01 12:35:55;;;;;;;63.47;58.55;;;;;;;;;;4877433;28;20189;-86
2021/11/01 12:38:22;;;;;;;46.33;42.28;;;;;;;;;;4877476;28;20255;-79
2021/11/01 12:40:52;;;;;;;36.60;33.75;;;;;;;;;;4877244;28;20255;-83
2021/11/01 12:43:34;;;;;;;42.40;38.65;;;;;;;;;;4877333;28;20239;-80
2021/11/01 12:57:05;;;;;;;12.70;5.28;;;39.40;51.50;;;;;;4879360;28;20681;-78
2021/11/01 12:59:36;;;;;;;23.40;8.50;;;38.70;52.90;;;;;;4897001;28;20253;-80
2021/11/01 13:02:00;;;;;;;26.33;5.85;;;37.20;52.40;;;;;;4886901;28;20205;-79
2021/11/01 13:04:36;;;;;;;15.73;6.82;;;36.40;52.10;;;;;;4872692;28;20790;-81
2021/11/01 13:07:03;;;;;;;19.02;9.93;;;;;;;;;;4873798;28;20647;-82
2021/11/01 13:09:29;;;;;;;23.23;6.32;;;34.80;51.50;;;;;;4875595;28;20201;-80
2021/11/01 13:12:16;;;;;;;18.98;9.35;;;34.10;51.30;;;;;;4871640;28;20189;-79
2021/11/01 13:14:50;;;;;;;52.92;9.15;;;;;;;;;;4875545;28;20209;-78
2021/11/01 13:19:56;;;;;;;12.15;1.63;;;;;;;;;;4859014;28;20252;-80
2021/11/01 13:22:23;;;;;;;10.77;1.55;;;29.20;49.50;;;;;;4877609;28;20581;-79
2021/11/01 13:24:53;;;;;;;11.23;1.50;;;;;;;;;;4878015;28;20200;-79
2021/11/01 13:27:29;;;;;;;12.53;1.70;;;27.50;48.90;;;;;;4876184;28;20247;-79
2021/11/01 13:35:31;;;;;;;10.23;1.47;;;;;;;;;;4877173;28;20696;-78
2021/11/01 13:37:58;;;;;;;13.13;1.73;;;23.50;62.20;;;;;;4869746;28;20188;-80
2021/11/01 13:40:22;;;;;;;18.27;4.83;;;23.30;62.10;;;;;;4871263;28;20216;-81
2021/11/01 13:42:55;;;;;;;13.23;3.00;;;22.30;61.60;;;;;;4876441;28;20186;-78
2021/11/01 13:45:22;;;;;;;13.40;2.57;;;;;;;;;;4876076;28;20570;-78
2021/11/01 13:47:48;;;;;;;12.67;1.80;;;21.50;61.20;;;;;;4875844;28;20732;-76
2021/11/01 13:50:11;;;;;;;16.87;2.50;;;21.50;61.20;;;;;;4874331;28;20252;-77
2021/11/01 13:52:37;;;;;;;26.80;3.43;;;;;;;;;;4875647;28;20201;-77
2021/11/01 13:55:04;;;;;;;15.00;2.20;;;20.80;60.90;;;;;;4858037;28;20197;-78
2021/11/01 13:57:32;;;;;;;32.57;4.60;;;20.80;59.20;;;;;;4873532;28;20198;-76
2021/11/01 14:00:11;;;;;;;14.97;2.13;;;20.50;60.70;;;;;;4904260;28;20223;-77
2021/11/01 14:13:51;;;;;;;22.93;2.93;;;;;;;;;;4911235;28;20194;-77
2021/11/01 14:16:23;;;;;;;14.80;1.90;;;;;;;;;;4916976;28;20194;-77
2021/11/01 14:18:59;;;;;;;9.70;1.23;;;;;;;;;;4917202;28;20242;-78
2021/11/01 14:29:38;;;;;;;8.23;1.10;;;;;;;;;;4890146;28;20240;-77
2021/11/01 15:13:31;;;;;;;11.97;1.57;;;;;;;;;;4891619;28;20227;-83
2021/11/01 15:18:39;;;;;;;11.87;1.50;;;;;;;;;;4869260;28;20247;-82
2021/11/01 15:21:09;;;;;;;7.50;1.00;;;;;;;;;;4878683;28;20181;-80
2021/11/01 15:23:48;;;;;;;17.37;2.20;;;;;;;;;;4878301;28;20661;-82
2021/11/01 15:26:41;;;;;;;8.43;1.20;;;14.20;56.70;;;;;;4910942;28;20226;-83
2021/11/01 15:35:09;;;;;;;19.03;2.47;;;;;;;;;;4859902;28;20229;-80
2021/11/01 16:17:44;;;;;;;28.17;3.37;;;;;;;;;;4896115;28;20598;-83
2021/11/01 16:20:10;;;;;;;5.87;0.87;;;11.50;52.80;;;;;;4896673;28;20192;-81
2021/11/01 16:22:33;;;;;;;20.93;2.63;;;;;;;;;;4896189;28;20662;-81
2021/11/01 16:24:56;;;;;;;8.27;1.20;;;;;;;;;;4896530;28;20333;-83
2021/11/01 16:27:21;;;;;;;11.73;1.60;;;;;;;;;;4895665;28;20667;-83
2021/11/01 16:29:49;;;;;;;23.03;2.83;;;;;;;;;;4896322;28;20240;-83
2021/11/01 16:32:19;;;;;;;13.93;1.83;;;10.60;51.80;;;;;;4895056;28;20201;-84
2021/11/01 16:34:45;;;;;;;20.60;2.57;;;;;;;;;;4896332;28;20646;-79
2021/11/01 16:37:22;;;;;;;6.20;0.93;;;;;;;;;;4896474;28;20188;-83
2021/11/01 16:39:47;;;;;;;20.67;2.63;;;;;;;;;;4896059;28;20230;-82
2021/11/01 16:42:12;;;;;;;10.87;1.50;;;;;;;;;;4896258;28;20558;-80
2021/11/01 16:44:40;;;;;;;24.77;3.07;;;9.60;50.80;;;;;;4895847;28;20631;-78
2021/11/01 16:47:03;;;;;;;9.97;1.40;;;9.40;49.50;;;;;;4896321;28;20192;-83
2021/11/01 16:49:29;;;;;;;9.83;1.40;;;9.40;50.80;;;;;;4895839;28;20749;-78
2021/11/01 16:51:53;;;;;;;8.17;1.20;;;9.10;50.30;;;;;;4896302;28;20204;-80
2021/11/01 16:54:19;;;;;;;9.80;1.40;;;;;;;;;;4896077;28;20188;-79
2021/11/01 16:57:01;;;;;;;12.90;1.70;;;8.90;48.40;;;;;;4895840;28;20180;-83
2021/11/01 16:59:33;;;;;;;9.03;1.33;;;8.70;49.50;;;;;;4896064;28;20188;-83
2021/11/01 17:02:07;;;;;;;8.97;1.30;;;8.60;49.40;;;;;;4886881;28;20910;-80
2021/11/01 17:04:35;;;;;;;17.13;2.27;;;8.50;49.40;;;;;;4876462;28;20232;-78
2021/11/01 17:07:03;;;;;;;10.47;1.50;;;;;;;;;;4875412;28;20247;-78
2021/11/01 17:10:13;;;;;;;9.60;1.30;;;8.60;47.80;;;;;;4876584;28;20185;-84
2021/11/01 17:23:47;;;;;;;7.43;1.20;;;8.30;47.70;;;;;;4885471;28;20219;-84
2021/11/01 17:26:22;;;;;;;5.37;0.83;;;8.00;47.40;;;;;;4889050;28;20216;-83
2021/11/01 17:28:53;;;;;;;13.13;1.83;;;;;;;;;;4889291;28;20207;-81
2021/11/01 17:36:57;;;;;;;11.53;1.80;;;8.10;47.30;;;;;;4889041;28;20638;-80
2021/11/01 18:39:37;;;;;;;12.47;1.90;;;8.60;48.80;;;;;;4852909;28;20969;-79
2021/11/01 18:42:18;;;;;;;11.13;1.63;;;8.40;48.20;;;;;;4848697;28;20252;-78
2021/11/01 18:53:03;;;;;;;9.93;1.50;;;8.70;47.40;;;;;;4860736;28;20205;-77
2021/11/01 18:55:27;;;;;;;9.90;1.50;;;8.20;48.60;;;;;;4897617;28;20246;-77
2021/11/01 18:57:53;;;;;;;7.97;1.23;;;8.10;47.20;;;;;;4897529;28;20189;-78
2021/11/01 19:00:16;;;;;;;10.33;1.50;;;8.00;48.50;;;;;;4896955;28;20185;-77
2021/11/01 19:02:45;;;;;;;20.80;2.67;;;8.00;48.50;;;;;;4895837;28;20189;-78
2021/11/01 19:05:16;;;;;;;8.93;1.27;;;7.70;48.40;;;;;;4891706;28;20236;-77
2021/11/01 19:07:44;;;;;;;14.13;1.83;;;7.60;48.30;;;;;;4888163;28;20536;-77
2021/11/01 19:10:23;;;;;;;11.13;1.60;;;6.90;48.00;;;;;;4879220;28;20197;-77
2021/11/01 20:04:10;;;;;;;13.67;1.97;;;7.40;47.40;;;;;;4887141;28;20273;-77
2021/11/01 20:06:51;;;;;;;16.53;2.27;;;7.50;47.50;;;;;;4884600;28;20294;-79
2021/11/01 20:12:20;;;;;;;13.87;1.93;;;7.60;47.80;;;;;;4878991;28;20189;-77
2021/11/01 20:15:00;;;;;;;16.07;2.23;;;7.60;47.70;;;;;;4888251;28;20185;-77
2021/11/01 21:25:11;;;;;;;9.90;1.43;;;8.80;44.50;;;;;;4894748;28;20715;-80
2021/11/01 21:27:34;;;;;;;14.53;2.03;;;8.50;95.90;;;;;;4894553;28;20280;-77
2021/11/01 21:29:56;;;;;;;9.07;1.40;;;8.50;37.90;;;;;;4894740;28;20646;-79
2021/11/01 21:32:19;;;;;;;17.07;2.47;;;8.80;65.20;;;;;;4894303;28;20181;-77
2021/11/01 21:34:52;;;;;;;17.80;2.43;;;;;;;;;;4894516;28;20226;-77
2021/11/01 21:37:15;;;;;;;10.13;1.50;;;;;;;;;;4894818;28;20192;-78
2021/11/01 21:39:38;;;;;;;18.13;2.47;;;9.20;67.30;;;;;;4888757;28;20211;-81
2021/11/01 21:42:02;;;;;;;8.97;1.33;;;9.00;99.90;;;;;;4894617;28;20188;-78
2021/11/01 21:44:26;;;;;;;14.73;2.03;;;;;;;;;;4894465;28;20674;-78
2021/11/01 21:46:48;;;;;;;18.70;2.57;;;;;;;;;;4904561;28;20269;-81
2021/11/01 21:49:11;;;;;;;8.97;1.40;;;8.80;54.70;;;;;;4895832;28;20591;-78
2021/11/01 21:51:38;;;;;;;13.77;1.93;;;8.80;55.00;;;;;;4894249;28;20180;-77
2021/11/01 21:54:06;;;;;;;10.13;1.50;;;;;;;;;;4892930;28;20198;-79
2021/11/01 21:56:32;;;;;;;14.47;2.10;;;;;;;;;;4893294;28;20230;-78
2021/11/01 21:59:11;;;;;;;13.27;1.90;;;9.00;55.20;;;;;;4894019;28;20310;-78
2021/11/01 22:10:03;;;;;;;22.63;2.90;;;;;;;;;;4880118;28;20846;-80
2021/11/01 22:17:55;;;;;;;18.53;2.60;;;;;;;;;;4874828;28;20201;-81
2021/11/01 22:20:20;;;;;;;17.20;2.20;;;;;;;;;;4874686;28;20193;-77
2021/11/01 22:22:53;;;;;;;22.83;2.73;;;;;;;;;;4874699;28;20268;-76
2021/11/01 22:25:20;;;;;;;9.13;1.33;;;;;;;;;;4874661;28;20250;-80
2021/11/01 22:33:38;;;;;;;12.43;1.60;;;;;;;;;;4872829;28;20201;-77
2021/11/01 22:38:54;;;;;;;24.43;2.87;;;;;;;;;;4833777;28;20270;-76
2021/11/01 22:41:38;;;;;;;9.00;1.30;;;8.40;71.80;;;;;;4878926;28;20235;-81
2021/11/01 22:47:09;;;;;;;18.20;2.50;;;7.90;32.00;;;;;;4886552;28;20238;-77
2021/11/01 22:57:37;;;;;;;32.03;3.93;;;;;;;;;;4882106;28;20189;-83
2021/11/01 23:00:01;;;;;;;18.20;2.40;;;;;;;;;;4886312;28;20188;-83
2021/11/01 23:02:25;;;;;;;23.83;3.00;;;8.00;96.00;;;;;;4883367;28;20177;-80
2021/11/01 23:04:51;;;;;;;22.80;2.97;;;;;;;;;;4885163;28;20216;-81
2021/11/01 23:31:29;;;;;;;17.03;2.30;;;;;;;;;;4887228;28;20238;-82
2021/11/01 23:33:53;;;;;;;15.80;2.17;;;8.30;95.90;;;;;;4883759;28;20712;-81
2021/11/01 23:36:16;;;;;;;14.87;2.20;;;;;;;;;;4880878;28;20185;-81
2021/11/01 23:38:40;;;;;;;22.33;3.03;;;;;;;;;;4884751;28;20202;-81
2021/11/01 23:41:05;;;;;;;20.83;2.70;;;;;;;;;;4880333;28;20689;-81